createdAt,value
2023-01-25T00:03:02.439Z,104016.94
2023-01-25T00:13:23.877Z,104003.59
2023-01-25T00:23:45.333Z,103993.72
2023-01-25T00:34:26.670Z,103978.25
2023-01-25T00:44:48.364Z,103972.22
2023-01-25T00:55:10.218Z,103977.75
2023-01-25T01:05:31.724Z,103964.75
2023-01-25T01:15:53.132Z,103950.94
2023-01-25T01:26:15.609Z,103965.03
2023-01-25T01:36:36.991Z,103954.28
2023-01-25T01:46:59.582Z,103945.53
2023-01-25T01:57:24.027Z,103927.59
2023-01-25T02:07:47.080Z,103923.00
2023-01-25T02:18:09.884Z,103924.50
2023-01-25T02:28:37.399Z,103911.44
2023-01-25T02:39:01.813Z,103876.44
2023-01-25T02:49:23.539Z,103859.47
2023-01-25T02:59:44.892Z,103860.03
2023-01-25T03:10:06.433Z,103860.09
2023-01-25T03:20:27.871Z,103855.97
2023-01-25T03:30:52.626Z,103849.78
2023-01-25T03:41:14.929Z,103831.34
2023-01-25T03:51:36.404Z,103828.34
2023-01-25T04:01:57.837Z,103830.03
2023-01-25T04:12:19.246Z,103826.88
2023-01-25T04:22:40.624Z,103818.19
2023-01-25T04:33:05.115Z,103811.16
2023-01-25T04:43:26.465Z,103791.63
2023-01-25T04:53:47.826Z,103782.06
2023-01-25T05:04:09.173Z,103776.88
2023-01-25T05:14:30.524Z,103775.72
2023-01-25T05:24:51.940Z,103779.53
2023-01-25T05:35:13.382Z,103776.84
2023-01-25T05:45:34.725Z,103772.06
2023-01-25T05:55:56.072Z,103761.19
2023-01-25T06:06:17.730Z,103752.97
2023-01-25T06:16:39.171Z,103753.34
2023-01-25T06:27:00.546Z,103753.84
2023-01-25T06:37:22.889Z,103760.88
2023-01-25T06:47:44.478Z,103768.66
2023-01-25T06:58:05.839Z,103753.34
2023-01-25T07:08:28.065Z,103742.66
2023-01-25T07:18:49.436Z,103727.00
2023-01-25T07:29:15.199Z,103728.59
2023-01-25T07:39:36.573Z,103717.34
2023-01-25T07:49:57.962Z,103712.94
2023-01-25T08:00:19.547Z,103706.88
2023-01-25T08:10:41.053Z,103709.31
2023-01-25T08:21:03.257Z,103707.69
2023-01-25T08:31:29.755Z,103685.19
2023-01-25T08:41:51.233Z,103693.44
2023-01-25T08:52:14.876Z,103671.41
2023-01-25T09:02:36.254Z,103660.44
2023-01-25T09:12:57.697Z,103645.88
2023-01-25T09:23:22.717Z,103630.41
2023-01-25T09:33:44.259Z,103629.06
2023-01-25T09:44:14.755Z,103634.41
2023-01-25T09:54:46.452Z,103601.47
2023-01-25T10:05:13.743Z,103603.91
2023-01-25T10:15:39.729Z,103599.53
2023-01-25T10:26:04.843Z,103592.94
2023-01-25T10:36:29.752Z,103568.00
2023-01-25T10:47:03.544Z,103555.59
2023-01-25T10:57:24.948Z,103542.81
2023-01-25T11:07:46.729Z,103503.19
2023-01-25T11:18:13.371Z,103501.91
2023-01-25T11:28:34.756Z,103478.63
2023-01-25T11:39:10.255Z,103456.53
2023-01-25T11:49:49.066Z,103432.56
2023-01-25T12:00:25.789Z,103402.97
2023-01-25T12:11:06.075Z,103380.09
2023-01-25T12:21:53.824Z,103355.66
2023-01-25T12:32:28.120Z,103329.94
2023-01-25T12:42:56.813Z,103299.94
2023-01-25T12:53:20.820Z,103283.16
2023-01-25T13:03:54.446Z,103270.97
2023-01-25T13:14:15.774Z,103249.13
2023-01-25T13:24:56.064Z,103240.97
2023-01-25T13:35:36.284Z,103218.56
2023-01-25T13:45:57.722Z,103223.19
2023-01-25T13:56:32.846Z,103212.69
2023-01-25T14:07:01.938Z,103205.16
2023-01-25T14:17:23.615Z,103177.81
2023-01-25T14:27:59.720Z,103175.09
2023-01-25T14:38:24.176Z,103182.59
2023-01-25T14:48:45.557Z,103167.47
2023-01-25T14:59:07.481Z,103161.63
2023-01-25T15:09:31.868Z,103171.91
2023-01-25T15:19:53.319Z,103160.75
2023-01-25T15:30:15.416Z,103150.44
2023-01-25T15:40:36.819Z,103124.66
2023-01-25T15:50:58.237Z,103111.59
2023-01-25T16:01:20.051Z,103092.53
2023-01-25T16:11:41.424Z,103101.41
2023-01-25T16:22:02.874Z,103105.38
2023-01-25T16:32:24.283Z,103121.19
2023-01-25T16:42:45.646Z,103129.84
2023-01-25T16:53:06.994Z,103110.41
2023-01-25T17:03:28.338Z,103089.91
2023-01-25T17:13:54.187Z,103067.69
2023-01-25T17:24:18.136Z,103043.78
2023-01-25T17:34:39.673Z,103026.78
2023-01-25T17:45:01.053Z,103019.72
2023-01-25T17:55:22.416Z,102986.34
2023-01-25T18:05:45.164Z,102958.75
2023-01-25T18:16:07.135Z,102927.31
2023-01-25T18:26:30.146Z,102924.06
2023-01-25T18:36:52.118Z,102895.63
2023-01-25T18:47:18.526Z,102875.81
2023-01-25T18:57:39.971Z,102877.53
2023-01-25T19:08:01.355Z,102859.19
2023-01-25T19:18:22.793Z,102866.47
2023-01-25T19:28:45.006Z,102835.72
2023-01-25T19:39:10.379Z,102846.41
2023-01-25T19:49:31.785Z,102835.34
2023-01-25T19:59:53.204Z,102837.09
2023-01-25T20:10:14.630Z,102834.72
2023-01-25T20:20:36.093Z,102822.81
2023-01-25T20:30:59.362Z,102820.22
2023-01-25T20:41:20.913Z,102806.66
2023-01-25T20:51:45.269Z,102817.34
2023-01-25T21:02:06.766Z,102803.84
2023-01-25T21:12:31.352Z,102789.50
2023-01-25T21:22:52.734Z,102785.91
2023-01-25T21:33:14.129Z,102782.31
2023-01-25T21:43:54.308Z,102764.44
2023-01-25T21:54:20.085Z,102769.47
2023-01-25T22:04:41.502Z,102753.38
2023-01-25T22:15:03.007Z,102737.03
2023-01-25T22:25:24.355Z,102750.00
2023-01-25T22:35:45.720Z,102729.66
2023-01-25T22:46:08.029Z,102729.53
2023-01-25T22:56:31.857Z,102719.25
2023-01-25T23:07:12.603Z,102708.19
2023-01-25T23:17:52.690Z,102710.94
2023-01-25T23:28:14.079Z,102687.31
2023-01-25T23:38:35.419Z,102667.34
2023-01-25T23:48:56.841Z,102666.72
2023-01-25T23:59:18.259Z,102655.06
